Airfield :







YOU CAN JOIN US ON...

 
LOGIN :

Register | Disclaimer

   EN    FR    IT 

 









Legend :    VFR   Marginal VFR   IFR   Intensive IFR   Very Intensive IFR
Visi :
Ceiling :
>= 8 km
>= 3000ft
5 to 8 km
1000 to 3000 ft
1500m to 5 km
500 to 1000 ft
800 to 1500m
200 to 500 ft
< 800m
< 200 ft
Symbols :   Thunderstorms  Fog  Heavy snow  Heavy precipitations  Wind > 20 kt






- Airport Elevation : 20 ft
- IATA code : BOS


KBOS - General Edward Lawrence Logan International

CURRENT METAR :
  • 200754Z 29005KT 10SM CLR 08/02 A3008 RMK AO2 SLP184 T00830022

EXPIRED METARs :
  • 200654Z 00000KT 10SM FEW250 08/02 A3006 RMK AO2 SLP178 T00830017
  • 200554Z 34006KT 10SM FEW250 09/02 A3006 RMK AO2 SLP177 T00940022 10133 20089 51004

TAF KBOS
Valid from the 20 at 08:00 until the 21 at 12:00 UTC


200801Z 2008/2112 30004KT P6SM SKC
FM201000 01004KT P6SM SKC
FM201600 15004KT P6SM BKN200
FM202000 12004KT P6SM BKN200
FM210100 14004KT P6SM OVC080
FM210500 10004KT P6SM BKN060
FM210800 06005KT P6SM BKN050



MET'MAP, your aeronautical weather chart ! - Copyright ORBIFLY December 2007 - Disclaimer

ORBIFLY MET'MAP TEAM :

Programming & Development : Alexandra Zaïnal
Concept & Development : Baudouin d'Aumeries
Co-Development & Prog : Marc-Olivier Méhu
Technical & hardware support : Manuel Goepfert

Contact : metmap@orbifly.com




SOURCES & CREDITS :

   NOAA